Time;durP1;ratioP1;P1;durP2;ratioP2;P2;SDS_P1;SDS_P2;PMS_P1;PMS_P2;Temp;Humidity;BMP_temperature;BMP_pressure;BME280_temperature;BME280_humidity;BME280_pressure;Samples;Min_cycle;Max_cycle;Signal;HPM_P1;HPM_P2
2023/09/20 00:01:27;;;;;;;10.90;5.33;;;;;;;13.13;89.04;99939.72;4193171;28;20253;-66
2023/09/20 00:03:54;;;;;;;10.80;6.20;;;;;;;13.25;88.59;99939.31;4191717;28;20258;-65
2023/09/20 00:06:20;;;;;;;10.37;5.50;;;;;;;13.41;87.67;99950.16;4201305;28;21993;-65
2023/09/20 00:08:47;;;;;;;10.40;5.17;;;;;;;13.34;87.72;99946.41;4187076;28;20395;-67
2023/09/20 00:11:15;;;;;;;9.70;5.10;;;;;;;13.45;87.54;99939.78;4171743;28;21628;-66
2023/09/20 00:13:42;;;;;;;10.07;5.00;;;;;;;13.55;86.84;99945.84;4193659;28;22003;-65
2023/09/20 00:16:09;;;;;;;10.10;5.30;;;;;;;13.54;86.65;99943.28;4194410;28;20230;-64
2023/09/20 00:18:37;;;;;;;11.30;5.20;;;;;;;13.46;86.83;99938.75;4197176;28;20293;-69
2023/09/20 00:21:04;;;;;;;11.00;5.20;;;;;;;13.54;86.65;99937.84;4182571;28;20620;-64
2023/09/20 00:23:31;;;;;;;13.27;5.13;;;;;;;13.44;86.80;99944.34;4194371;28;20234;-65
2023/09/20 00:25:57;;;;;;;11.27;5.23;;;;;;;13.43;87.09;99949.97;4196451;28;20236;-65
2023/09/20 00:28:24;;;;;;;11.43;5.27;;;;;;;13.56;86.47;99952.09;4188966;28;20423;-65
2023/09/20 00:30:52;;;;;;;8.70;5.10;;;;;;;13.57;86.32;99953.81;4193999;28;20629;-64
2023/09/20 00:33:19;;;;;;;9.47;4.83;;;;;;;13.56;86.18;99950.22;4200314;28;20240;-66
2023/09/20 00:35:46;;;;;;;8.47;5.07;;;;;;;13.52;85.97;99946.19;4188244;28;20292;-65
2023/09/20 00:38:14;;;;;;;8.03;4.90;;;;;;;13.54;86.00;99944.13;4197489;28;20321;-64
2023/09/20 00:40:43;;;;;;;11.40;5.20;;;;;;;13.49;85.93;99948.41;4201508;28;20300;-65
2023/09/20 00:43:12;;;;;;;10.63;5.33;;;;;;;13.45;86.11;99945.19;4196067;28;20233;-64
2023/09/20 00:45:40;;;;;;;9.83;5.03;;;;;;;13.30;86.77;99958.66;4206357;28;20236;-65
2023/09/20 00:48:12;;;;;;;14.03;5.27;;;;;;;13.21;87.41;99952.41;4199191;28;20314;-65
2023/09/20 00:50:41;;;;;;;12.30;5.00;;;;;;;13.41;86.41;99955.59;4193199;28;20233;-65
2023/09/20 00:53:11;;;;;;;8.87;4.47;;;;;;;13.43;86.45;99955.41;4185846;28;20328;-65
2023/09/20 00:55:39;;;;;;;14.20;5.07;;;;;;;13.55;85.73;99958.56;4204428;28;22215;-65
2023/09/20 00:58:09;;;;;;;12.93;4.80;;;;;;;13.46;86.12;99963.22;4193838;28;20243;-68
2023/09/20 01:00:40;;;;;;;11.47;4.77;;;;;;;13.43;86.43;99960.84;4203511;28;20257;-63
2023/09/20 01:03:06;;;;;;;14.77;4.87;;;;;;;13.46;86.26;99964.06;4195571;28;20537;-65
2023/09/20 01:05:39;;;;;;;10.03;5.50;;;;;;;13.51;85.62;99954.53;4192585;28;20356;-65
2023/09/20 01:08:08;;;;;;;7.77;4.87;;;;;;;13.53;85.26;99958.75;4181701;28;20732;-66
2023/09/20 01:10:38;;;;;;;8.43;4.63;;;;;;;13.53;85.56;99960.59;4199795;28;20233;-65
2023/09/20 01:13:07;;;;;;;8.00;4.73;;;;;;;13.58;85.37;99966.38;4195075;28;20233;-67
2023/09/20 01:15:35;;;;;;;9.47;4.63;;;;;;;13.51;85.07;99962.69;4196813;28;20287;-66
2023/09/20 01:18:04;;;;;;;7.30;4.37;;;;;;;13.37;86.03;99965.06;4209545;28;20299;-65
2023/09/20 01:20:33;;;;;;;9.47;4.47;;;;;;;13.41;85.62;99966.47;4198680;28;24961;-64
2023/09/20 01:23:00;;;;;;;8.13;4.20;;;;;;;13.29;86.35;99960.53;4201226;28;20252;-65
2023/09/20 01:25:29;;;;;;;9.00;4.20;;;;;;;13.28;86.48;99968.88;4191156;28;20260;-64
2023/09/20 01:27:58;;;;;;;8.80;4.23;;;;;;;13.29;86.37;99967.88;4201601;28;22210;-67
2023/09/20 01:30:28;;;;;;;9.47;4.77;;;;;;;13.37;85.66;99975.94;4201089;28;20750;-64
2023/09/20 01:33:00;;;;;;;9.17;4.70;;;;;;;13.28;85.90;99977.03;4198134;28;20637;-65
2023/09/20 01:35:31;;;;;;;6.83;3.93;;;;;;;13.20;86.59;99975.19;4199448;28;20246;-64
2023/09/20 01:38:06;;;;;;;12.67;4.57;;;;;;;13.24;86.14;99976.53;4191339;28;23032;-65
2023/09/20 01:40:46;;;;;;;9.13;4.50;;;;;;;13.25;86.34;99969.22;4199629;28;20237;-64
2023/09/20 01:43:13;;;;;;;11.53;4.23;;;;;;;13.42;85.56;99970.88;4205544;28;20320;-64
2023/09/20 01:45:42;;;;;;;12.60;4.17;;;;;;;13.37;85.77;99967.78;4185592;28;20302;-64
2023/09/20 01:48:10;;;;;;;12.37;4.00;;;;;;;13.36;85.14;99963.41;4183781;28;21177;-63
2023/09/20 01:50:38;;;;;;;11.37;4.40;;;;;;;13.35;85.24;99977.16;4190594;28;20238;-64
2023/09/20 01:53:10;;;;;;;9.70;4.27;;;;;;;13.35;85.41;99974.44;4198784;28;22122;-66
2023/09/20 01:55:41;;;;;;;10.37;4.53;;;;;;;13.42;84.49;99973.59;4185944;28;20242;-65
2023/09/20 01:58:12;;;;;;;7.57;4.03;;;;;;;13.38;84.75;99974.09;4203020;28;22983;-66
2023/09/20 02:03:36;;;;;;;8.80;4.20;;;;;;;13.34;84.71;99973.59;4200851;28;20247;-64
2023/09/20 02:06:04;;;;;;;10.50;4.30;;;;;;;13.31;84.76;99974.81;4203768;28;20230;-64
2023/09/20 02:08:31;;;;;;;6.27;3.80;;;;;;;13.42;84.24;99980.91;4203691;28;20706;-64
2023/09/20 02:10:57;;;;;;;9.93;4.20;;;;;;;13.36;84.61;99978.84;4189237;28;20518;-64
2023/09/20 02:13:24;;;;;;;9.97;4.60;;;;;;;13.46;84.11;99979.53;4183968;28;21715;-65
2023/09/20 02:15:52;;;;;;;9.77;4.50;;;;;;;13.53;83.37;99983.22;4192527;28;22842;-65
2023/09/20 02:18:22;;;;;;;7.80;4.13;;;;;;;13.52;83.44;99981.53;4190519;28;20340;-65
2023/09/20 02:20:49;;;;;;;8.67;4.60;;;;;;;13.39;83.77;99976.66;4194351;28;21097;-66
2023/09/20 02:23:17;;;;;;;9.90;4.40;;;;;;;13.27;84.72;99981.59;4192819;28;20645;-65
2023/09/20 02:25:43;;;;;;;13.77;3.80;;;;;;;13.34;84.28;99981.75;4192837;28;20248;-65
2023/09/20 02:28:11;;;;;;;11.00;3.97;;;;;;;13.40;83.46;99983.78;4192091;28;20655;-66
2023/09/20 02:30:38;;;;;;;7.00;3.60;;;;;;;13.28;84.32;99986.03;4197792;28;20331;-64
2023/09/20 02:33:07;;;;;;;9.87;4.27;;;;;;;13.35;84.19;99983.47;4184608;28;20229;-65
2023/09/20 02:35:34;;;;;;;11.03;4.10;;;;;;;13.43;83.85;99991.63;4181276;28;22185;-66
2023/09/20 02:38:05;;;;;;;11.73;4.10;;;;;;;13.55;82.78;99985.75;4189431;28;20337;-67
2023/09/20 02:40:41;;;;;;;8.80;4.20;;;;;;;13.54;82.73;99987.66;4188862;28;20414;-64
2023/09/20 02:43:17;;;;;;;10.37;4.43;;;;;;;13.48;82.97;99985.66;4197782;28;20249;-65
2023/09/20 02:45:45;;;;;;;13.60;4.03;;;;;;;13.43;83.01;99988.91;4194716;28;20988;-65
2023/09/20 02:48:12;;;;;;;8.70;3.90;;;;;;;13.41;83.17;99982.78;4193541;28;20375;-64
2023/09/20 02:50:41;;;;;;;12.10;4.10;;;;;;;13.49;83.02;99983.75;4199595;28;20509;-63
2023/09/20 02:53:09;;;;;;;6.97;3.80;;;;;;;13.44;83.23;99996.00;4195759;28;20232;-65
2023/09/20 02:55:38;;;;;;;11.67;3.53;;;;;;;13.38;83.44;99990.41;4199098;28;20593;-65
2023/09/20 02:58:04;;;;;;;8.20;3.80;;;;;;;13.38;83.37;99996.72;4199900;28;20292;-65
2023/09/20 03:00:31;;;;;;;9.30;3.70;;;;;;;13.36;83.77;99987.00;4205130;28;20241;-65
2023/09/20 03:03:02;;;;;;;9.67;3.80;;;;;;;13.37;83.28;99986.00;4191195;28;20479;-65
2023/09/20 03:05:30;;;;;;;13.60;4.07;;;;;;;13.43;83.06;99986.19;4198808;28;20238;-64
2023/09/20 03:08:21;;;;;;;11.40;3.83;;;;;;;13.43;82.79;99993.47;4191840;28;20241;-65
2023/09/20 03:10:47;;;;;;;12.97;4.53;;;;;;;13.19;83.70;99994.41;4188393;28;20969;-66
2023/09/20 03:13:17;;;;;;;10.10;3.87;;;;;;;13.23;83.85;99993.00;4199342;28;20229;-66
2023/09/20 03:15:45;;;;;;;12.53;3.80;;;;;;;13.26;83.74;99992.66;4193536;28;20237;-64
2023/09/20 03:18:14;;;;;;;9.27;4.10;;;;;;;13.33;82.93;99988.22;4197323;28;20467;-66
2023/09/20 03:20:44;;;;;;;8.47;4.33;;;;;;;13.22;83.46;99984.03;4176563;28;20440;-64
2023/09/20 03:23:11;;;;;;;6.80;3.63;;;;;;;13.22;83.33;99983.19;4204414;28;22571;-64
2023/09/20 03:25:38;;;;;;;8.43;4.27;;;;;;;13.33;82.81;99982.78;4189729;28;20237;-63
2023/09/20 03:28:09;;;;;;;11.40;3.87;;;;;;;13.32;82.75;99994.66;4194529;28;21034;-64
2023/09/20 03:30:40;;;;;;;14.70;4.17;;;;;;;13.19;83.16;99987.06;4198998;28;20751;-64
2023/09/20 03:33:10;;;;;;;5.00;3.40;;;;;;;13.11;83.81;99985.25;4188985;28;20250;-65
2023/09/20 03:35:37;;;;;;;10.67;4.00;;;;;;;13.15;83.73;99983.84;4199260;28;20232;-63
2023/09/20 03:38:04;;;;;;;8.63;4.03;;;;;;;13.06;83.61;99978.63;4203622;28;23561;-64
2023/09/20 03:40:44;;;;;;;10.13;4.20;;;;;;;13.11;83.44;99989.81;4200871;28;20244;-65
2023/09/20 03:43:11;;;;;;;15.00;4.10;;;;;;;13.22;82.73;99994.88;4207583;28;21966;-64
2023/09/20 03:45:38;;;;;;;8.03;4.40;;;;;;;13.21;82.67;99989.63;4195433;28;20414;-65
2023/09/20 03:48:05;;;;;;;5.33;3.57;;;;;;;13.11;83.12;99982.53;4196460;28;20887;-64
2023/09/20 03:50:32;;;;;;;10.90;4.60;;;;;;;13.15;82.69;99988.47;4200777;28;20256;-67
2023/09/20 03:53:24;;;;;;;10.63;4.30;;;;;;;13.05;83.45;99996.81;4210800;28;20230;-66
2023/09/20 03:56:14;;;;;;;13.73;4.37;;;;;;;13.16;82.56;99987.44;4204605;28;20477;-66
2023/09/20 03:58:44;;;;;;;11.77;3.80;;;;;;;13.06;83.12;99984.94;4191703;28;20237;-64
2023/09/20 04:01:11;;;;;;;11.27;4.20;;;;;;;12.95;83.53;99982.56;4204416;28;20236;-65
2023/09/20 04:03:40;;;;;;;12.40;3.80;;;;;;;13.14;83.12;99986.75;4197483;28;20319;-66
2023/09/20 04:06:07;;;;;;;11.37;4.30;;;;;;;13.13;83.13;99993.22;4191005;28;21167;-65
2023/09/20 04:08:34;;;;;;;7.83;3.80;;;;;;;13.14;82.83;99984.03;4199975;28;20236;-65
2023/09/20 04:11:01;;;;;;;9.67;4.23;;;;;;;13.12;82.72;99986.94;4201013;28;20239;-64
2023/09/20 04:13:27;;;;;;;10.40;4.00;;;;;;;13.16;82.88;99987.44;4196281;28;23567;-66
2023/09/20 04:15:57;;;;;;;13.20;4.40;;;;;;;13.19;82.58;99992.50;4191356;28;20329;-66
2023/09/20 04:18:26;;;;;;;8.90;4.33;;;;;;;13.15;82.87;99993.91;4194191;28;20229;-65
2023/09/20 04:20:53;;;;;;;14.60;4.03;;;;;;;13.09;83.06;99994.59;4191529;28;20250;-66
2023/09/20 04:23:44;;;;;;;8.30;4.00;;;;;;;13.09;83.56;99994.59;4211949;28;20296;-65
2023/09/20 04:26:10;;;;;;;9.83;4.30;;;;;;;13.02;83.82;99989.00;4199173;28;21025;-67
2023/09/20 04:28:37;;;;;;;8.63;4.07;;;;;;;13.06;83.83;99990.38;4200730;28;20576;-65
2023/09/20 04:31:04;;;;;;;9.33;4.07;;;;;;;13.29;83.42;99997.75;4191346;28;21961;-65
2023/09/20 04:33:32;;;;;;;9.53;4.43;;;;;;;13.38;82.75;99993.13;4233046;28;20240;-65
2023/09/20 04:36:00;;;;;;;8.73;4.00;;;;;;;13.51;81.76;99996.16;4194776;28;20511;-64
2023/09/20 04:38:27;;;;;;;12.50;4.40;;;;;;;13.66;81.36;99995.38;4210548;28;20407;-73
2023/09/20 04:40:59;;;;;;;10.87;3.97;;;;;;;13.56;81.62;100003.78;4210917;28;21151;-74
2023/09/20 04:43:26;;;;;;;11.27;4.10;;;;;;;13.60;81.79;100000.53;4198789;28;20247;-74
2023/09/20 04:45:55;;;;;;;10.50;3.70;;;;;;;13.70;81.37;100003.03;4198491;28;20236;-74
2023/09/20 04:48:22;;;;;;;15.53;4.17;;;;;;;13.83;80.30;99997.00;4198613;28;20275;-76
2023/09/20 04:51:13;;;;;;;17.40;4.63;;;;;;;13.87;80.70;99998.31;4220024;28;20226;-76
2023/09/20 04:53:40;;;;;;;12.97;4.23;;;;;;;13.93;80.02;99994.88;4185567;28;20410;-73
2023/09/20 04:56:07;;;;;;;9.17;4.50;;;;;;;14.10;79.17;99995.63;4206412;28;25696;-73
2023/09/20 04:58:34;;;;;;;11.77;4.40;;;;;;;14.06;79.44;99999.72;4217967;28;20682;-73
2023/09/20 05:01:25;;;;;;;14.87;4.00;;;;;;;14.21;78.55;99991.63;4207762;28;20229;-74
2023/09/20 05:03:51;;;;;;;8.73;4.17;;;;;;;14.28;78.70;99994.44;4187221;28;20245;-67
2023/09/20 05:06:19;;;;;;;9.70;3.63;;;;;;;14.41;77.74;100000.16;4201465;28;20229;-65
2023/09/20 05:08:46;;;;;;;11.60;3.97;;;;;;;14.35;77.61;99998.13;4201691;28;20304;-68
2023/09/20 05:11:13;;;;;;;9.77;3.63;;;;;;;14.47;76.94;99997.72;4195145;28;21144;-65
2023/09/20 05:13:43;;;;;;;15.53;4.20;;;;;;;14.52;76.99;100001.59;4203470;28;20340;-66
2023/09/20 05:16:10;;;;;;;16.87;8.03;;;;;;;14.51;76.85;99999.88;4194520;28;20862;-69
2023/09/20 05:18:37;;;;;;;9.97;4.37;;;;;;;14.64;76.43;99996.53;4209261;28;20743;-68
2023/09/20 05:21:03;;;;;;;16.17;3.77;;;;;;;14.70;75.77;99990.38;4188771;28;23507;-67
2023/09/20 05:23:34;;;;;;;9.83;3.73;;;;;;;14.70;76.07;99997.69;4194717;28;20237;-69
2023/09/20 05:26:03;;;;;;;10.77;4.33;;;;;;;14.63;76.13;99988.53;4193559;28;23034;-67
2023/09/20 05:28:29;;;;;;;15.83;4.70;;;;;;;14.66;76.23;99989.03;4196971;28;21463;-67
2023/09/20 05:30:57;;;;;;;16.47;3.90;;;;;;;14.84;75.37;99998.75;4188595;28;21080;-64
2023/09/20 05:33:48;;;;;;;14.07;4.47;;;;;;;14.88;74.96;99994.59;4202913;28;20326;-68
2023/09/20 05:36:15;;;;;;;13.67;4.67;;;;;;;14.97;74.69;99988.03;4198240;28;20415;-67
2023/09/20 05:38:43;;;;;;;21.67;4.80;;;;;;;15.01;74.01;99989.38;4195835;28;21658;-66
2023/09/20 05:41:10;;;;;;;32.70;4.17;;;;;;;15.15;73.56;99986.84;4177697;28;20237;-67
2023/09/20 05:43:46;;;;;;;14.50;3.73;;;;;;;15.23;72.76;99985.88;4194745;28;20228;-67
2023/09/20 05:46:37;;;;;;;15.67;4.30;;;;;;;15.23;73.35;99994.91;4205580;28;20233;-68
2023/09/20 05:49:04;;;;;;;11.87;3.37;;;;;;;15.22;73.30;99995.94;4196015;28;25395;-70
2023/09/20 05:51:31;;;;;;;10.13;3.90;;;;;;;15.30;72.99;99984.06;4198707;28;20266;-66
2023/09/20 05:53:57;;;;;;;14.63;3.83;;;;;;;15.42;72.25;99992.63;4198888;28;26385;-66
2023/09/20 05:56:25;;;;;;;13.80;4.07;;;;;;;15.48;71.74;99998.19;4202937;28;20368;-67
2023/09/20 05:58:53;;;;;;;27.40;5.33;;;;;;;15.49;72.12;99991.69;4190035;28;20305;-67
2023/09/20 06:01:20;;;;;;;15.40;3.83;;;;;;;15.56;71.81;99999.94;4195171;28;21749;-65
2023/09/20 06:03:47;;;;;;;19.23;3.97;;;;;;;15.60;71.05;99992.22;4200063;28;21427;-65
2023/09/20 06:06:14;;;;;;;20.43;4.47;;;;;;;15.68;70.92;99990.25;4179567;28;20246;-65
2023/09/20 06:08:42;;;;;;;16.83;4.70;;;;;;;15.78;70.85;100000.00;4194609;28;22337;-64
2023/09/20 06:11:10;;;;;;;12.27;3.60;;;;;;;15.84;71.42;100000.09;4191009;28;20537;-64
2023/09/20 06:13:38;;;;;;;11.73;3.80;;;;;;;15.92;71.22;100001.00;4198621;28;20263;-65
2023/09/20 06:16:08;;;;;;;13.33;4.27;;;;;;;15.99;71.14;99997.34;4195166;28;20512;-65
2023/09/20 06:18:35;;;;;;;13.03;3.43;;;;;;;16.00;71.37;99992.69;4189701;28;20416;-65
2023/09/20 06:21:08;;;;;;;14.43;4.13;;;;;;;16.09;71.02;99994.28;4186967;28;20236;-65
2023/09/20 06:23:35;;;;;;;9.80;3.63;;;;;;;16.14;70.95;99999.16;4195065;28;21758;-66
2023/09/20 06:26:09;;;;;;;10.40;3.87;;;;;;;16.24;71.33;100012.47;4199027;28;20709;-66
2023/09/20 06:28:37;;;;;;;8.77;4.00;;;;;;;16.30;71.64;100008.97;4213133;28;20240;-64
2023/09/20 06:31:03;;;;;;;13.43;3.83;;;;;;;16.36;71.56;100013.63;4186414;28;20357;-64
2023/09/20 06:33:30;;;;;;;7.13;3.10;;;;;;;16.40;72.04;100019.56;4197777;28;20513;-67
2023/09/20 06:35:59;;;;;;;6.77;3.53;;;;;;;16.51;71.20;100013.56;4189872;28;20324;-66
2023/09/20 06:38:25;;;;;;;6.83;3.60;;;;;;;16.65;71.19;100014.53;4198686;28;21966;-66
2023/09/20 06:40:53;;;;;;;12.30;3.57;;;;;;;16.55;71.41;100005.81;4194712;28;20671;-66
2023/09/20 06:43:23;;;;;;;7.53;3.50;;;;;;;16.76;70.90;100010.41;4193485;28;21734;-65
2023/09/20 06:45:51;;;;;;;11.07;3.80;;;;;;;16.86;70.85;100015.53;4202518;28;20232;-64
2023/09/20 06:48:22;;;;;;;13.67;3.93;;;;;;;16.79;71.21;100010.00;4195905;28;21005;-66
2023/09/20 06:50:54;;;;;;;7.57;3.13;;;;;;;16.96;70.75;100010.56;4197780;28;20664;-65
2023/09/20 06:53:23;;;;;;;14.00;3.40;;;;;;;17.07;70.46;100015.50;4197966;28;22884;-65
2023/09/20 06:55:50;;;;;;;16.80;3.40;;;;;;;17.25;69.67;100012.22;4185460;28;20603;-63
2023/09/20 06:58:21;;;;;;;7.90;3.10;;;;;;;17.44;69.12;100026.22;4186177;28;20230;-66
2023/09/20 07:00:51;;;;;;;10.07;3.57;;;;;;;17.51;69.27;100018.03;4187909;28;20278;-65
2023/09/20 07:03:18;;;;;;;15.53;3.43;;;;;;;17.72;68.75;100028.88;4209203;28;20224;-65
2023/09/20 07:05:46;;;;;;;12.27;3.87;;;;;;;17.86;68.71;100028.94;4197064;28;20714;-66
2023/09/20 07:08:14;;;;;;;8.77;3.40;;;;;;;18.05;68.15;100030.06;4192091;28;20716;-67
2023/09/20 07:10:43;;;;;;;10.03;3.43;;;;;;;18.24;67.56;100033.88;4209010;28;20594;-65
2023/09/20 07:13:11;;;;;;;7.97;3.77;;;;;;;18.69;66.58;100031.41;4238483;28;21165;-67
2023/09/20 07:15:39;;;;;;;11.70;3.47;;;;;;;19.28;64.67;100031.59;4207760;28;20238;-65
2023/09/20 07:18:12;;;;;;;9.90;3.03;;;;;;;21.20;59.53;100031.66;4234180;28;22886;-64
2023/09/20 07:20:41;;;;;;;10.57;3.33;;;;;;;22.48;54.79;100038.38;4235970;28;21272;-65
2023/09/20 07:23:09;;;;;;;8.17;2.73;;;;;;;25.10;46.99;100035.72;4240901;28;26229;-66
2023/09/20 07:25:37;;;;;;;8.30;3.10;;;;;;;26.20;44.62;100034.94;4234746;28;25940;-66
2023/09/20 07:28:06;;;;;;;8.80;3.20;;;;;;;25.84;45.23;100034.53;4268307;28;22894;-67
2023/09/20 07:30:40;;;;;;;6.13;3.10;;;;;;;26.31;44.61;100040.63;4216712;28;21525;-68
2023/09/20 07:33:11;;;;;;;6.87;3.20;;;;;;;25.60;45.23;100053.38;4230508;28;20241;-66
2023/09/20 07:35:49;;;;;;;6.90;3.20;;;;;;;24.50;48.12;100047.19;4226816;28;20240;-66
2023/09/20 07:38:27;;;;;;;12.10;3.27;;;;;;;24.65;47.13;100054.06;4239156;28;20228;-65
2023/09/20 07:41:08;;;;;;;8.13;3.33;;;;;;;24.77;46.12;100051.25;4219155;28;21812;-67
2023/09/20 07:43:41;;;;;;;8.77;3.30;;;;;;;24.44;46.97;100048.19;4216663;28;20257;-67
2023/09/20 07:46:09;;;;;;;7.13;2.80;;;;;;;23.80;47.52;100051.06;4184853;28;20275;-67
2023/09/20 07:48:50;;;;;;;10.10;3.27;;;;;;;25.44;43.19;100057.84;4195564;28;20233;-65
2023/09/20 07:51:20;;;;;;;8.10;3.20;;;;;;;25.06;44.30;100062.25;4207900;28;20560;-64
2023/09/20 07:53:53;;;;;;;8.20;3.10;;;;;;;24.45;44.62;100049.88;4189285;28;20331;-67
2023/09/20 07:56:21;;;;;;;9.10;3.40;;;;;;;25.10;43.64;100060.66;4192875;28;20240;-66
2023/09/20 07:58:48;;;;;;;6.23;3.00;;;;;;;24.39;45.38;100063.84;4193421;28;20284;-63
2023/09/20 08:01:19;;;;;;;6.10;2.80;;;;;;;25.44;43.28;100066.16;4203776;28;20624;-66
2023/09/20 08:03:52;;;;;;;5.77;2.73;;;;;;;24.95;43.29;100066.78;4194505;28;20316;-66
2023/09/20 08:06:32;;;;;;;9.87;3.33;;;;;;;25.80;41.68;100063.84;4227020;28;20375;-66
2023/09/20 08:09:00;;;;;;;6.97;2.73;;;;;;;27.53;38.11;100069.66;4230864;28;20287;-66
2023/09/20 08:11:27;;;;;;;9.77;3.00;;;;;;;27.08;38.97;100073.78;4212946;28;21096;-65
2023/09/20 08:13:57;;;;;;;5.23;2.90;;;;;;;27.26;38.42;100076.16;4178031;28;20316;-67
2023/09/20 08:16:25;;;;;;;8.20;3.07;;;;;;;27.56;38.52;100062.72;4229359;28;20301;-66
2023/09/20 08:19:20;;;;;;;9.32;3.28;;;;;;;29.03;35.38;100061.69;4210176;28;20663;-66
2023/09/20 08:21:49;;;;;;;9.87;3.33;;;;;;;26.47;39.08;100063.78;4220903;28;21284;-66
2023/09/20 09:00:34;;;;;;;7.20;2.63;;;;;;;22.89;45.60;100046.81;4185321;28;20302;-67
2023/09/20 09:03:04;;;;;;;9.27;2.60;;;;;;;22.60;46.38;100047.50;4179193;28;20234;-67
2023/09/20 09:05:32;;;;;;;7.57;3.13;;;;;;;22.56;45.04;100049.06;4175852;28;22055;-67
2023/09/20 09:08:03;;;;;;;10.87;2.90;;;;;;;22.21;46.65;100052.50;4172565;28;22206;-68
2023/09/20 09:10:30;;;;;;;6.17;2.53;;;;;;;22.44;46.57;100057.31;4194326;28;20236;-66
2023/09/20 09:12:57;;;;;;;5.30;2.63;;;;;;;22.83;43.61;100054.13;4192460;28;20508;-67
2023/09/20 09:15:25;;;;;;;10.63;3.43;;;;;;;22.46;45.34;100048.78;4167873;28;20234;-68
2023/09/20 09:17:52;;;;;;;7.83;2.40;;;;;;;22.56;44.13;100043.53;4190088;28;20237;-68
2023/09/20 09:20:19;;;;;;;8.07;2.93;;;;;;;21.62;47.17;100047.53;4182578;28;20245;-68
2023/09/20 09:22:53;;;;;;;17.73;3.03;;;;;;;21.43;47.56;100054.94;4183333;28;22717;-66
2023/09/20 09:25:29;;;;;;;8.10;2.70;;;;;;;21.35;48.47;100046.97;4184951;28;21086;-67
2023/09/20 09:27:56;;;;;;;8.20;2.70;;;;;;;21.86;48.25;100050.44;4174014;28;20233;-68
2023/09/20 09:30:23;;;;;;;6.70;2.60;;;;;;;21.77;47.65;100051.81;4193379;28;20243;-68
2023/09/20 09:32:53;;;;;;;9.50;3.67;;;;;;;21.81;48.59;100055.81;4178337;28;20371;-68
2023/09/20 09:35:21;;;;;;;5.60;2.33;;;;;;;21.70;50.21;100049.16;4195199;28;20347;-68
2023/09/20 09:38:06;;;;;;;11.37;2.60;;;;;;;21.41;51.11;100047.97;4180857;28;22263;-68
2023/09/20 09:40:50;;;;;;;8.00;2.60;;;;;;;21.33;49.46;100043.63;4201994;28;21155;-70
2023/09/20 09:43:19;;;;;;;7.40;2.90;;;;;;;21.41;49.42;100039.72;4179492;28;22070;-67
2023/09/20 09:45:49;;;;;;;8.47;2.70;;;;;;;21.14;48.06;100045.53;4171006;28;21131;-70
2023/09/20 09:48:19;;;;;;;8.03;2.53;;;;;;;21.18;47.77;100042.09;4170459;28;21091;-67
2023/09/20 09:50:48;;;;;;;9.97;2.77;;;;;;;21.25;48.19;100050.25;4194804;28;20311;-50
2023/09/20 09:53:22;;;;;;;9.77;2.57;;;;;;;21.20;48.70;100055.63;4192803;28;20454;-52
2023/09/20 09:55:52;;;;;;;4.70;2.20;;;;;;;21.02;48.23;100043.50;4171627;28;20341;-51
2023/09/20 09:58:19;;;;;;;6.23;2.90;;;;;;;21.15;49.06;100048.03;4207691;28;21734;-47
2023/09/20 10:00:50;;;;;;;8.13;2.57;;;;;;;21.04;49.11;100048.75;4182388;28;20237;-50
2023/09/20 10:03:32;;;;;;;7.03;2.13;;;;;;;20.92;48.09;100045.09;4189517;28;20249;-57
2023/09/20 10:06:15;;;;;;;8.20;2.50;;;;;;;21.09;48.40;100050.84;4174194;28;20233;-49
2023/09/20 10:08:43;;;;;;;8.27;2.60;;;;;;;20.85;48.88;100051.50;4179005;28;20236;-49
2023/09/20 10:11:10;;;;;;;7.43;2.60;;;;;;;20.93;49.25;100050.34;4183469;28;21077;-49
2023/09/20 10:13:39;;;;;;;12.90;2.87;;;;;;;21.02;49.78;100051.75;4163286;28;22328;-53
2023/09/20 10:16:10;;;;;;;6.97;2.57;;;;;;;21.09;49.57;100051.69;4177533;28;20839;-49
2023/09/20 10:18:54;;;;;;;5.63;2.33;;;;;;;21.31;50.18;100056.78;4191559;28;20245;-48
2023/09/20 10:21:33;;;;;;;8.30;2.60;;;;;;;21.32;48.26;100042.78;4178696;28;20242;-49
2023/09/20 10:24:05;;;;;;;8.80;2.50;;;;;;;21.10;48.23;100049.78;4187414;28;20293;-51
2023/09/20 10:26:39;;;;;;;12.33;2.30;;;;;;;21.25;49.22;100061.28;4186182;28;20426;-48
2023/09/20 10:29:23;;;;;;;5.93;2.40;;;;;;;21.08;48.05;100046.41;4196142;28;26731;-52
2023/09/20 10:32:06;;;;;;;9.10;2.40;;;;;;;21.14;48.09;100048.28;4190153;28;20440;-46
2023/09/20 10:34:40;;;;;;;8.10;2.23;;;;;;;21.17;47.95;100034.91;4193904;28;20288;-53
2023/09/20 10:37:08;;;;;;;13.30;2.10;;;;;;;21.42;49.89;100049.66;4209402;28;21461;-50
2023/09/20 10:39:36;;;;;;;6.13;2.20;;;;;;;21.53;47.34;100054.41;4197114;28;21091;-50
2023/09/20 10:42:10;;;;;;;8.00;2.40;;;;;;;21.60;47.07;100046.94;4187798;28;20242;-46
2023/09/20 10:44:41;;;;;;;7.63;2.60;;;;;;;21.64;47.21;100044.59;4187615;28;20707;-66
2023/09/20 10:47:12;;;;;;;8.20;2.30;;;;;;;21.47;47.46;100041.56;4195886;28;20365;-66
2023/09/20 10:49:52;;;;;;;6.43;2.20;;;;;;;21.61;47.91;100045.03;4198763;28;20684;-68
2023/09/20 10:52:31;;;;;;;7.83;2.27;;;;;;;21.52;47.06;100038.97;4192322;28;20234;-67
2023/09/20 10:55:24;;;;;;;5.23;2.40;;;;;;;21.83;45.47;100046.25;4179808;28;20232;-66
2023/09/20 10:57:53;;;;;;;7.17;2.10;;;;;;;21.96;46.00;100038.84;4198398;28;25533;-70
2023/09/20 11:00:30;;;;;;;12.67;2.33;;;;;;;22.07;45.83;100042.75;4184767;28;20236;-66
2023/09/20 11:02:58;;;;;;;7.87;2.40;;;;;;;22.08;46.55;100042.53;4191615;28;20274;-66
2023/09/20 11:05:28;;;;;;;6.27;2.30;;;;;;;21.86;46.25;100036.66;4197331;28;20233;-67
2023/09/20 11:07:57;;;;;;;7.27;2.20;;;;;;;21.96;46.42;100034.22;4168715;28;20252;-66
2023/09/20 11:10:26;;;;;;;6.90;1.90;;;;;;;22.11;45.12;100035.69;4186870;28;20271;-66
2023/09/20 11:12:55;;;;;;;7.83;2.20;;;;;;;22.42;44.10;100028.28;4186836;28;20281;-67
2023/09/20 11:15:23;;;;;;;4.97;2.07;;;;;;;22.59;43.21;100026.50;4182439;28;20521;-68
2023/09/20 11:17:53;;;;;;;6.10;2.00;;;;;;;22.34;44.11;100023.06;4219395;28;20261;-69
2023/09/20 11:20:20;;;;;;;6.87;2.27;;;;;;;22.28;44.84;100033.13;4184563;28;20667;-70
2023/09/20 11:22:49;;;;;;;7.47;1.90;;;;;;;22.38;44.04;100032.53;4183966;28;21050;-67
2023/09/20 11:25:17;;;;;;;7.03;2.60;;;;;;;22.28;43.89;100031.19;4196250;28;21656;-68
2023/09/20 11:27:44;;;;;;;5.07;1.87;;;;;;;22.34;45.60;100032.16;4198935;28;20388;-67
2023/09/20 11:30:11;;;;;;;6.73;1.67;;;;;;;22.42;45.09;100031.03;4203364;28;20240;-67
2023/09/20 11:32:39;;;;;;;4.77;2.00;;;;;;;22.46;45.84;100035.00;4185989;28;20237;-68
2023/09/20 11:35:07;;;;;;;9.83;1.70;;;;;;;22.25;45.17;100025.31;4183549;28;20228;-66
2023/09/20 11:37:38;;;;;;;5.33;1.90;;;;;;;22.15;45.02;100035.00;4199637;28;20310;-68
2023/09/20 11:40:10;;;;;;;6.00;1.93;;;;;;;22.08;45.15;100025.13;4183380;28;20232;-69
2023/09/20 11:42:52;;;;;;;4.30;1.77;;;;;;;22.03;46.43;100025.81;4199729;28;20251;-65
2023/09/20 11:45:21;;;;;;;6.80;2.20;;;;;;;22.12;46.52;100031.88;4201632;28;20234;-68
2023/09/20 11:48:15;;;;;;;7.70;2.07;;;;;;;22.28;45.38;100024.84;4192062;28;20246;-67
2023/09/20 11:50:47;;;;;;;5.20;1.97;;;;;;;22.05;45.70;100025.63;4176320;28;20247;-68
2023/09/20 11:53:15;;;;;;;3.73;2.07;;;;;;;22.02;45.70;100023.31;4183697;28;20634;-69
2023/09/20 11:55:43;;;;;;;5.17;1.70;;;;;;;22.12;46.04;100026.38;4206290;28;21650;-55
2023/09/20 11:58:10;;;;;;;8.03;1.80;;;;;;;22.14;46.22;100019.53;4194277;28;20258;-51
2023/09/20 12:00:39;;;;;;;4.33;1.80;;;;;;;22.59;44.84;100020.16;4195788;28;20593;-60
2023/09/20 12:03:07;;;;;;;6.13;2.00;;;;;;;22.82;45.16;100024.84;4183307;28;20309;-68
2023/09/20 12:05:36;;;;;;;5.73;1.77;;;;;;;22.69;44.74;100017.66;4179962;28;21989;-68
2023/09/20 12:08:06;;;;;;;8.17;2.20;;;;;;;22.56;44.90;100024.22;4193731;28;20276;-68
2023/09/20 12:10:33;;;;;;;10.03;2.17;;;;;;;22.61;44.80;100016.06;4192288;28;20307;-67
2023/09/20 12:12:59;;;;;;;6.30;2.00;;;;;;;22.42;44.76;100020.00;4186360;28;20883;-68
2023/09/20 12:15:26;;;;;;;8.70;2.30;;;;;;;22.39;45.67;100018.56;4184793;28;20233;-67
2023/09/20 12:17:57;;;;;;;7.57;2.20;;;;;;;22.51;45.18;100006.69;4186885;28;20568;-69
2023/09/20 12:20:25;;;;;;;6.70;2.23;;;;;;;22.57;46.06;100009.38;4175044;28;20286;-66